sensor_id;sensor_type;location;lat;lon;timestamp;P1;durP1;ratioP1;P2;durP2;ratioP2
15818;SDS011;8010;53.986;12.106;2023-07-08T00:00:20;4.40;;;3.20;;
15818;SDS011;8010;53.986;12.106;2023-07-08T00:02:47;3.87;;;2.90;;
15818;SDS011;8010;53.986;12.106;2023-07-08T00:05:14;4.63;;;3.37;;
15818;SDS011;8010;53.986;12.106;2023-07-08T00:07:41;3.90;;;3.20;;
15818;SDS011;8010;53.986;12.106;2023-07-08T00:10:10;5.07;;;3.30;;
15818;SDS011;8010;53.986;12.106;2023-07-08T00:12:36;4.70;;;3.50;;
15818;SDS011;8010;53.986;12.106;2023-07-08T00:15:02;4.20;;;3.73;;
15818;SDS011;8010;53.986;12.106;2023-07-08T00:17:28;4.03;;;3.30;;
15818;SDS011;8010;53.986;12.106;2023-07-08T00:19:53;4.30;;;3.77;;
15818;SDS011;8010;53.986;12.106;2023-07-08T00:22:19;3.70;;;3.30;;
15818;SDS011;8010;53.986;12.106;2023-07-08T00:24:45;4.90;;;3.47;;
15818;SDS011;8010;53.986;12.106;2023-07-08T00:27:11;5.03;;;3.50;;
15818;SDS011;8010;53.986;12.106;2023-07-08T00:29:38;4.80;;;3.23;;
15818;SDS011;8010;53.986;12.106;2023-07-08T00:32:08;3.50;;;3.13;;
15818;SDS011;8010;53.986;12.106;2023-07-08T00:34:36;4.63;;;3.57;;
15818;SDS011;8010;53.986;12.106;2023-07-08T00:37:02;3.53;;;3.23;;
15818;SDS011;8010;53.986;12.106;2023-07-08T00:39:29;4.73;;;3.53;;
15818;SDS011;8010;53.986;12.106;2023-07-08T00:41:58;5.23;;;3.70;;
15818;SDS011;8010;53.986;12.106;2023-07-08T00:44:26;3.83;;;3.47;;
15818;SDS011;8010;53.986;12.106;2023-07-08T00:46:57;3.97;;;3.40;;
15818;SDS011;8010;53.986;12.106;2023-07-08T00:49:31;4.53;;;3.37;;
15818;SDS011;8010;53.986;12.106;2023-07-08T00:52:14;4.10;;;3.70;;
15818;SDS011;8010;53.986;12.106;2023-07-08T00:54:49;4.30;;;3.60;;
15818;SDS011;8010;53.986;12.106;2023-07-08T00:57:26;5.10;;;3.30;;
15818;SDS011;8010;53.986;12.106;2023-07-08T01:00:06;3.90;;;3.50;;
15818;SDS011;8010;53.986;12.106;2023-07-08T01:02:41;4.40;;;4.00;;
15818;SDS011;8010;53.986;12.106;2023-07-08T01:05:12;3.60;;;3.30;;
15818;SDS011;8010;53.986;12.106;2023-07-08T01:07:43;3.63;;;3.33;;
15818;SDS011;8010;53.986;12.106;2023-07-08T01:10:14;3.50;;;3.20;;
15818;SDS011;8010;53.986;12.106;2023-07-08T01:12:46;3.60;;;3.17;;
15818;SDS011;8010;53.986;12.106;2023-07-08T01:15:17;3.63;;;3.33;;
15818;SDS011;8010;53.986;12.106;2023-07-08T01:17:43;3.83;;;3.40;;
15818;SDS011;8010;53.986;12.106;2023-07-08T01:20:10;3.53;;;3.23;;
15818;SDS011;8010;53.986;12.106;2023-07-08T01:22:37;3.73;;;3.27;;
15818;SDS011;8010;53.986;12.106;2023-07-08T01:25:05;3.53;;;3.23;;
15818;SDS011;8010;53.986;12.106;2023-07-08T01:27:33;4.10;;;3.70;;
15818;SDS011;8010;53.986;12.106;2023-07-08T01:30:02;4.00;;;3.60;;
15818;SDS011;8010;53.986;12.106;2023-07-08T01:32:29;4.47;;;3.30;;
15818;SDS011;8010;53.986;12.106;2023-07-08T01:34:57;4.47;;;3.90;;
15818;SDS011;8010;53.986;12.106;2023-07-08T01:37:29;3.67;;;3.33;;
15818;SDS011;8010;53.986;12.106;2023-07-08T01:42:43;6.20;;;3.57;;
15818;SDS011;8010;53.986;12.106;2023-07-08T01:45:13;4.00;;;3.60;;
15818;SDS011;8010;53.986;12.106;2023-07-08T01:47:40;5.37;;;3.83;;
15818;SDS011;8010;53.986;12.106;2023-07-08T01:50:07;6.27;;;3.90;;
15818;SDS011;8010;53.986;12.106;2023-07-08T01:52:35;4.47;;;3.30;;
15818;SDS011;8010;53.986;12.106;2023-07-08T01:55:01;5.07;;;3.50;;
15818;SDS011;8010;53.986;12.106;2023-07-08T01:57:26;5.23;;;3.90;;
15818;SDS011;8010;53.986;12.106;2023-07-08T01:59:52;3.70;;;3.33;;
15818;SDS011;8010;53.986;12.106;2023-07-08T02:02:17;3.80;;;3.30;;
15818;SDS011;8010;53.986;12.106;2023-07-08T02:04:44;4.83;;;3.70;;
15818;SDS011;8010;53.986;12.106;2023-07-08T02:07:09;4.00;;;3.60;;
15818;SDS011;8010;53.986;12.106;2023-07-08T02:09:35;3.73;;;3.43;;
15818;SDS011;8010;53.986;12.106;2023-07-08T02:12:00;4.33;;;3.63;;
15818;SDS011;8010;53.986;12.106;2023-07-08T02:14:26;4.50;;;3.80;;
15818;SDS011;8010;53.986;12.106;2023-07-08T02:16:51;4.53;;;3.90;;
15818;SDS011;8010;53.986;12.106;2023-07-08T02:19:17;4.10;;;3.70;;
15818;SDS011;8010;53.986;12.106;2023-07-08T02:21:44;4.90;;;4.00;;
15818;SDS011;8010;53.986;12.106;2023-07-08T02:24:10;4.10;;;3.53;;
15818;SDS011;8010;53.986;12.106;2023-07-08T02:26:35;4.27;;;3.67;;
15818;SDS011;8010;53.986;12.106;2023-07-08T02:29:01;3.83;;;3.47;;
15818;SDS011;8010;53.986;12.106;2023-07-08T02:31:27;4.67;;;3.80;;
15818;SDS011;8010;53.986;12.106;2023-07-08T02:33:53;4.30;;;3.90;;
15818;SDS011;8010;53.986;12.106;2023-07-08T02:36:19;5.33;;;3.70;;
15818;SDS011;8010;53.986;12.106;2023-07-08T02:38:45;4.30;;;3.90;;
15818;SDS011;8010;53.986;12.106;2023-07-08T02:41:10;5.40;;;4.13;;
15818;SDS011;8010;53.986;12.106;2023-07-08T02:43:36;4.50;;;3.67;;
15818;SDS011;8010;53.986;12.106;2023-07-08T02:46:03;4.67;;;4.17;;
15818;SDS011;8010;53.986;12.106;2023-07-08T02:48:28;6.13;;;3.60;;
15818;SDS011;8010;53.986;12.106;2023-07-08T02:51:00;3.60;;;3.30;;
15818;SDS011;8010;53.986;12.106;2023-07-08T02:53:27;6.10;;;3.97;;
15818;SDS011;8010;53.986;12.106;2023-07-08T02:55:52;4.73;;;3.60;;
15818;SDS011;8010;53.986;12.106;2023-07-08T02:58:18;4.10;;;3.70;;
15818;SDS011;8010;53.986;12.106;2023-07-08T03:00:43;5.37;;;3.70;;
15818;SDS011;8010;53.986;12.106;2023-07-08T03:03:09;4.40;;;4.00;;
15818;SDS011;8010;53.986;12.106;2023-07-08T03:05:34;4.23;;;3.83;;
15818;SDS011;8010;53.986;12.106;2023-07-08T03:08:01;4.93;;;3.80;;
15818;SDS011;8010;53.986;12.106;2023-07-08T03:10:27;4.23;;;3.63;;
15818;SDS011;8010;53.986;12.106;2023-07-08T03:12:52;7.67;;;4.10;;
15818;SDS011;8010;53.986;12.106;2023-07-08T03:15:18;5.47;;;3.70;;
15818;SDS011;8010;53.986;12.106;2023-07-08T03:17:43;4.60;;;3.80;;
15818;SDS011;8010;53.986;12.106;2023-07-08T03:20:10;5.20;;;3.70;;
15818;SDS011;8010;53.986;12.106;2023-07-08T03:22:36;4.30;;;3.90;;
15818;SDS011;8010;53.986;12.106;2023-07-08T03:25:02;4.37;;;3.97;;
15818;SDS011;8010;53.986;12.106;2023-07-08T03:27:28;3.87;;;3.50;;
15818;SDS011;8010;53.986;12.106;2023-07-08T03:29:53;5.20;;;3.90;;
15818;SDS011;8010;53.986;12.106;2023-07-08T03:32:19;4.70;;;3.73;;
15818;SDS011;8010;53.986;12.106;2023-07-08T03:34:44;5.73;;;4.03;;
15818;SDS011;8010;53.986;12.106;2023-07-08T03:37:10;4.67;;;3.90;;
15818;SDS011;8010;53.986;12.106;2023-07-08T03:39:35;4.10;;;3.60;;
15818;SDS011;8010;53.986;12.106;2023-07-08T03:42:01;4.10;;;3.70;;
15818;SDS011;8010;53.986;12.106;2023-07-08T03:44:28;4.73;;;4.17;;
15818;SDS011;8010;53.986;12.106;2023-07-08T03:46:54;6.37;;;4.47;;
15818;SDS011;8010;53.986;12.106;2023-07-08T03:49:20;5.67;;;4.37;;
15818;SDS011;8010;53.986;12.106;2023-07-08T03:51:49;5.27;;;3.90;;
15818;SDS011;8010;53.986;12.106;2023-07-08T03:54:16;4.50;;;3.97;;
15818;SDS011;8010;53.986;12.106;2023-07-08T03:56:43;4.47;;;4.07;;
15818;SDS011;8010;53.986;12.106;2023-07-08T03:59:09;4.47;;;3.63;;
15818;SDS011;8010;53.986;12.106;2023-07-08T04:01:35;7.33;;;4.00;;
15818;SDS011;8010;53.986;12.106;2023-07-08T04:04:03;5.00;;;3.87;;
15818;SDS011;8010;53.986;12.106;2023-07-08T04:06:29;4.60;;;4.20;;
15818;SDS011;8010;53.986;12.106;2023-07-08T04:08:55;7.43;;;4.73;;
15818;SDS011;8010;53.986;12.106;2023-07-08T04:11:21;4.70;;;4.13;;
15818;SDS011;8010;53.986;12.106;2023-07-08T04:13:48;4.80;;;4.37;;
15818;SDS011;8010;53.986;12.106;2023-07-08T04:16:16;7.73;;;4.83;;
15818;SDS011;8010;53.986;12.106;2023-07-08T04:18:47;4.90;;;4.40;;
15818;SDS011;8010;53.986;12.106;2023-07-08T04:21:16;6.07;;;4.67;;
15818;SDS011;8010;53.986;12.106;2023-07-08T04:23:42;5.07;;;4.57;;
15818;SDS011;8010;53.986;12.106;2023-07-08T04:26:08;4.83;;;4.33;;
15818;SDS011;8010;53.986;12.106;2023-07-08T04:28:34;6.93;;;4.50;;
15818;SDS011;8010;53.986;12.106;2023-07-08T04:31:00;5.07;;;4.17;;
15818;SDS011;8010;53.986;12.106;2023-07-08T04:33:26;5.40;;;4.90;;
15818;SDS011;8010;53.986;12.106;2023-07-08T04:35:51;8.60;;;4.67;;
15818;SDS011;8010;53.986;12.106;2023-07-08T04:38:20;5.83;;;4.67;;
15818;SDS011;8010;53.986;12.106;2023-07-08T04:40:47;6.53;;;5.90;;
15818;SDS011;8010;53.986;12.106;2023-07-08T04:43:14;6.73;;;5.00;;
15818;SDS011;8010;53.986;12.106;2023-07-08T04:45:40;6.73;;;5.53;;
15818;SDS011;8010;53.986;12.106;2023-07-08T04:48:11;6.37;;;4.87;;
15818;SDS011;8010;53.986;12.106;2023-07-08T04:50:41;5.63;;;4.73;;
15818;SDS011;8010;53.986;12.106;2023-07-08T04:53:08;7.10;;;5.67;;
15818;SDS011;8010;53.986;12.106;2023-07-08T04:55:38;5.67;;;5.17;;
15818;SDS011;8010;53.986;12.106;2023-07-08T04:58:06;6.93;;;5.23;;
15818;SDS011;8010;53.986;12.106;2023-07-08T05:00:32;6.00;;;5.37;;
15818;SDS011;8010;53.986;12.106;2023-07-08T05:02:57;8.90;;;5.43;;
15818;SDS011;8010;53.986;12.106;2023-07-08T05:05:23;6.60;;;4.93;;
15818;SDS011;8010;53.986;12.106;2023-07-08T05:07:48;4.93;;;4.43;;
15818;SDS011;8010;53.986;12.106;2023-07-08T05:10:14;5.47;;;4.97;;
15818;SDS011;8010;53.986;12.106;2023-07-08T05:12:40;8.67;;;4.83;;
15818;SDS011;8010;53.986;12.106;2023-07-08T05:15:07;5.17;;;4.67;;
15818;SDS011;8010;53.986;12.106;2023-07-08T05:17:33;5.93;;;4.60;;
15818;SDS011;8010;53.986;12.106;2023-07-08T05:19:59;5.57;;;4.67;;
15818;SDS011;8010;53.986;12.106;2023-07-08T05:22:25;5.70;;;5.10;;
15818;SDS011;8010;53.986;12.106;2023-07-08T05:24:52;6.47;;;4.87;;
15818;SDS011;8010;53.986;12.106;2023-07-08T05:27:20;7.73;;;4.27;;
15818;SDS011;8010;53.986;12.106;2023-07-08T05:29:47;6.17;;;4.63;;
15818;SDS011;8010;53.986;12.106;2023-07-08T05:32:13;8.70;;;4.77;;
15818;SDS011;8010;53.986;12.106;2023-07-08T05:34:38;5.07;;;4.00;;
15818;SDS011;8010;53.986;12.106;2023-07-08T05:37:04;5.40;;;4.50;;
15818;SDS011;8010;53.986;12.106;2023-07-08T05:39:30;5.73;;;4.63;;
15818;SDS011;8010;53.986;12.106;2023-07-08T05:41:56;5.40;;;4.20;;
15818;SDS011;8010;53.986;12.106;2023-07-08T05:44:21;6.67;;;4.40;;
15818;SDS011;8010;53.986;12.106;2023-07-08T05:46:47;6.27;;;4.47;;
15818;SDS011;8010;53.986;12.106;2023-07-08T05:49:14;4.73;;;4.00;;
15818;SDS011;8010;53.986;12.106;2023-07-08T05:51:39;5.17;;;4.03;;
15818;SDS011;8010;53.986;12.106;2023-07-08T05:54:05;8.30;;;3.80;;
15818;SDS011;8010;53.986;12.106;2023-07-08T05:56:30;7.27;;;3.90;;
15818;SDS011;8010;53.986;12.106;2023-07-08T05:58:56;4.23;;;3.77;;
15818;SDS011;8010;53.986;12.106;2023-07-08T06:01:21;5.57;;;4.10;;
15818;SDS011;8010;53.986;12.106;2023-07-08T06:03:47;5.03;;;3.80;;
15818;SDS011;8010;53.986;12.106;2023-07-08T06:06:13;7.40;;;3.63;;
15818;SDS011;8010;53.986;12.106;2023-07-08T06:08:39;3.33;;;3.03;;
15818;SDS011;8010;53.986;12.106;2023-07-08T06:11:04;3.07;;;2.73;;
15818;SDS011;8010;53.986;12.106;2023-07-08T06:13:30;2.77;;;2.53;;
15818;SDS011;8010;53.986;12.106;2023-07-08T06:15:55;5.17;;;2.90;;
15818;SDS011;8010;53.986;12.106;2023-07-08T06:18:21;3.80;;;3.00;;
15818;SDS011;8010;53.986;12.106;2023-07-08T06:20:50;3.80;;;3.20;;
15818;SDS011;8010;53.986;12.106;2023-07-08T06:23:20;3.83;;;2.70;;
15818;SDS011;8010;53.986;12.106;2023-07-08T06:25:46;4.37;;;2.73;;
15818;SDS011;8010;53.986;12.106;2023-07-08T06:28:11;3.17;;;2.60;;
15818;SDS011;8010;53.986;12.106;2023-07-08T06:30:37;3.83;;;2.20;;
15818;SDS011;8010;53.986;12.106;2023-07-08T06:33:03;3.07;;;2.50;;
15818;SDS011;8010;53.986;12.106;2023-07-08T06:35:29;4.03;;;2.37;;
15818;SDS011;8010;53.986;12.106;2023-07-08T06:37:54;2.23;;;2.00;;
15818;SDS011;8010;53.986;12.106;2023-07-08T06:40:20;3.23;;;2.47;;
15818;SDS011;8010;53.986;12.106;2023-07-08T06:42:46;4.07;;;2.13;;
15818;SDS011;8010;53.986;12.106;2023-07-08T06:45:12;6.17;;;2.20;;
15818;SDS011;8010;53.986;12.106;2023-07-08T06:47:37;3.00;;;2.53;;
15818;SDS011;8010;53.986;12.106;2023-07-08T06:50:03;2.37;;;2.17;;
15818;SDS011;8010;53.986;12.106;2023-07-08T06:52:29;3.43;;;2.30;;
15818;SDS011;8010;53.986;12.106;2023-07-08T06:55:00;2.27;;;1.90;;
15818;SDS011;8010;53.986;12.106;2023-07-08T06:57:27;2.70;;;2.00;;
15818;SDS011;8010;53.986;12.106;2023-07-08T06:59:53;3.43;;;2.53;;
15818;SDS011;8010;53.986;12.106;2023-07-08T07:02:18;2.93;;;2.20;;
15818;SDS011;8010;53.986;12.106;2023-07-08T07:04:45;4.13;;;2.00;;
15818;SDS011;8010;53.986;12.106;2023-07-08T07:07:10;2.87;;;2.57;;
15818;SDS011;8010;53.986;12.106;2023-07-08T07:09:36;3.33;;;2.10;;
15818;SDS011;8010;53.986;12.106;2023-07-08T07:12:02;3.27;;;2.07;;
15818;SDS011;8010;53.986;12.106;2023-07-08T07:14:28;4.03;;;2.37;;
15818;SDS011;8010;53.986;12.106;2023-07-08T07:16:54;7.53;;;2.00;;
15818;SDS011;8010;53.986;12.106;2023-07-08T07:19:19;4.03;;;2.07;;
15818;SDS011;8010;53.986;12.106;2023-07-08T07:21:46;2.70;;;2.10;;
15818;SDS011;8010;53.986;12.106;2023-07-08T07:24:12;6.47;;;2.90;;
15818;SDS011;8010;53.986;12.106;2023-07-08T07:26:37;3.03;;;2.43;;
15818;SDS011;8010;53.986;12.106;2023-07-08T07:29:03;3.47;;;2.33;;
15818;SDS011;8010;53.986;12.106;2023-07-08T07:31:29;3.03;;;2.33;;
15818;SDS011;8010;53.986;12.106;2023-07-08T07:33:56;3.87;;;2.10;;
15818;SDS011;8010;53.986;12.106;2023-07-08T07:36:21;3.37;;;2.33;;
15818;SDS011;8010;53.986;12.106;2023-07-08T07:38:47;3.03;;;2.27;;
15818;SDS011;8010;53.986;12.106;2023-07-08T07:41:12;2.07;;;1.80;;
15818;SDS011;8010;53.986;12.106;2023-07-08T07:43:38;3.87;;;2.20;;
15818;SDS011;8010;53.986;12.106;2023-07-08T07:46:03;3.47;;;2.10;;
15818;SDS011;8010;53.986;12.106;2023-07-08T07:48:30;3.27;;;2.10;;
15818;SDS011;8010;53.986;12.106;2023-07-08T07:50:57;2.60;;;2.00;;
15818;SDS011;8010;53.986;12.106;2023-07-08T07:53:22;2.80;;;2.00;;
15818;SDS011;8010;53.986;12.106;2023-07-08T07:55:48;2.97;;;2.13;;
15818;SDS011;8010;53.986;12.106;2023-07-08T07:58:20;4.17;;;1.87;;
15818;SDS011;8010;53.986;12.106;2023-07-08T08:00:45;4.00;;;2.10;;
15818;SDS011;8010;53.986;12.106;2023-07-08T08:03:11;3.53;;;2.03;;
15818;SDS011;8010;53.986;12.106;2023-07-08T08:05:37;2.53;;;2.20;;
15818;SDS011;8010;53.986;12.106;2023-07-08T08:08:02;4.07;;;2.40;;
15818;SDS011;8010;53.986;12.106;2023-07-08T08:10:28;2.43;;;2.23;;
15818;SDS011;8010;53.986;12.106;2023-07-08T08:12:54;3.03;;;1.80;;
15818;SDS011;8010;53.986;12.106;2023-07-08T08:15:21;3.50;;;1.93;;
15818;SDS011;8010;53.986;12.106;2023-07-08T08:17:47;3.33;;;1.97;;
15818;SDS011;8010;53.986;12.106;2023-07-08T08:20:14;3.87;;;2.00;;
15818;SDS011;8010;53.986;12.106;2023-07-08T08:22:39;3.07;;;2.27;;
15818;SDS011;8010;53.986;12.106;2023-07-08T08:25:05;3.97;;;1.80;;
15818;SDS011;8010;53.986;12.106;2023-07-08T08:27:31;1.93;;;1.73;;
15818;SDS011;8010;53.986;12.106;2023-07-08T08:29:57;2.30;;;2.10;;
15818;SDS011;8010;53.986;12.106;2023-07-08T08:32:22;4.07;;;2.30;;
15818;SDS011;8010;53.986;12.106;2023-07-08T08:34:48;4.10;;;2.20;;
15818;SDS011;8010;53.986;12.106;2023-07-08T08:37:13;2.80;;;2.07;;
15818;SDS011;8010;53.986;12.106;2023-07-08T08:39:39;3.33;;;1.83;;
15818;SDS011;8010;53.986;12.106;2023-07-08T08:42:07;2.27;;;2.07;;
15818;SDS011;8010;53.986;12.106;2023-07-08T08:45:00;2.23;;;1.87;;
15818;SDS011;8010;53.986;12.106;2023-07-08T08:50:09;3.57;;;1.97;;
15818;SDS011;8010;53.986;12.106;2023-07-08T08:52:42;3.07;;;2.00;;
15818;SDS011;8010;53.986;12.106;2023-07-08T08:55:12;2.70;;;1.87;;
15818;SDS011;8010;53.986;12.106;2023-07-08T09:00:16;2.67;;;1.90;;
15818;SDS011;8010;53.986;12.106;2023-07-08T09:05:35;4.53;;;2.10;;
15818;SDS011;8010;53.986;12.106;2023-07-08T09:10:40;2.37;;;2.00;;
15818;SDS011;8010;53.986;12.106;2023-07-08T09:13:32;3.77;;;2.13;;
15818;SDS011;8010;53.986;12.106;2023-07-08T09:21:26;2.97;;;2.07;;
15818;SDS011;8010;53.986;12.106;2023-07-08T09:24:07;3.17;;;2.00;;
15818;SDS011;8010;53.986;12.106;2023-07-08T09:26:40;3.73;;;1.83;;
15818;SDS011;8010;53.986;12.106;2023-07-08T09:29:09;6.07;;;2.30;;
15818;SDS011;8010;53.986;12.106;2023-07-08T09:31:36;3.80;;;1.87;;
15818;SDS011;8010;53.986;12.106;2023-07-08T09:34:14;3.07;;;2.10;;
15818;SDS011;8010;53.986;12.106;2023-07-08T09:36:42;3.03;;;1.90;;
15818;SDS011;8010;53.986;12.106;2023-07-08T09:39:12;3.60;;;2.10;;
15818;SDS011;8010;53.986;12.106;2023-07-08T09:41:40;3.03;;;2.00;;
15818;SDS011;8010;53.986;12.106;2023-07-08T09:44:14;4.67;;;2.23;;
15818;SDS011;8010;53.986;12.106;2023-07-08T09:46:51;3.13;;;1.80;;
15818;SDS011;8010;53.986;12.106;2023-07-08T09:51:52;3.40;;;2.10;;
15818;SDS011;8010;53.986;12.106;2023-07-08T09:54:22;4.10;;;2.10;;
15818;SDS011;8010;53.986;12.106;2023-07-08T09:56:54;3.67;;;2.03;;
15818;SDS011;8010;53.986;12.106;2023-07-08T09:59:32;4.40;;;2.10;;
15818;SDS011;8010;53.986;12.106;2023-07-08T10:02:16;3.30;;;1.97;;
15818;SDS011;8010;53.986;12.106;2023-07-08T10:04:55;2.83;;;1.90;;
15818;SDS011;8010;53.986;12.106;2023-07-08T10:07:22;2.00;;;1.77;;
15818;SDS011;8010;53.986;12.106;2023-07-08T10:09:50;3.00;;;1.80;;
15818;SDS011;8010;53.986;12.106;2023-07-08T10:12:18;1.90;;;1.70;;
15818;SDS011;8010;53.986;12.106;2023-07-08T10:14:47;3.83;;;2.30;;
15818;SDS011;8010;53.986;12.106;2023-07-08T10:17:21;3.53;;;1.90;;
15818;SDS011;8010;53.986;12.106;2023-07-08T10:19:46;3.03;;;2.03;;
15818;SDS011;8010;53.986;12.106;2023-07-08T10:25:26;2.93;;;1.90;;
15818;SDS011;8010;53.986;12.106;2023-07-08T10:27:57;3.70;;;1.90;;
15818;SDS011;8010;53.986;12.106;2023-07-08T10:30:30;2.93;;;1.70;;
15818;SDS011;8010;53.986;12.106;2023-07-08T10:33:28;2.73;;;2.00;;
15818;SDS011;8010;53.986;12.106;2023-07-08T10:41:47;2.20;;;2.00;;
15818;SDS011;8010;53.986;12.106;2023-07-08T10:44:26;2.63;;;1.87;;
15818;SDS011;8010;53.986;12.106;2023-07-08T10:47:15;2.30;;;1.90;;
15818;SDS011;8010;53.986;12.106;2023-07-08T10:52:46;2.23;;;1.80;;
15818;SDS011;8010;53.986;12.106;2023-07-08T10:55:28;2.60;;;1.60;;
15818;SDS011;8010;53.986;12.106;2023-07-08T11:03:39;2.53;;;2.03;;
15818;SDS011;8010;53.986;12.106;2023-07-08T11:06:26;3.20;;;1.92;;
15818;SDS011;8010;53.986;12.106;2023-07-08T11:09:05;2.60;;;1.93;;
15818;SDS011;8010;53.986;12.106;2023-07-08T11:11:36;2.57;;;1.60;;
15818;SDS011;8010;53.986;12.106;2023-07-08T11:19:45;2.35;;;1.70;;
15818;SDS011;8010;53.986;12.106;2023-07-08T11:22:16;2.83;;;1.83;;
15818;SDS011;8010;53.986;12.106;2023-07-08T11:24:47;2.03;;;1.83;;
15818;SDS011;8010;53.986;12.106;2023-07-08T11:27:21;1.95;;;1.70;;
15818;SDS011;8010;53.986;12.106;2023-07-08T11:29:59;2.97;;;1.90;;
15818;SDS011;8010;53.986;12.106;2023-07-08T11:32:36;1.88;;;1.77;;
15818;SDS011;8010;53.986;12.106;2023-07-08T11:35:03;3.13;;;1.90;;
15818;SDS011;8010;53.986;12.106;2023-07-08T11:37:31;3.13;;;1.80;;
15818;SDS011;8010;53.986;12.106;2023-07-08T11:39:58;2.17;;;1.95;;
15818;SDS011;8010;53.986;12.106;2023-07-08T11:45:00;2.30;;;1.77;;
15818;SDS011;8010;53.986;12.106;2023-07-08T11:47:40;2.67;;;1.80;;
15818;SDS011;8010;53.986;12.106;2023-07-08T11:50:28;2.13;;;1.80;;
15818;SDS011;8010;53.986;12.106;2023-07-08T11:53:00;4.85;;;1.90;;
15818;SDS011;8010;53.986;12.106;2023-07-08T11:58:23;3.25;;;2.00;;
15818;SDS011;8010;53.986;12.106;2023-07-08T12:00:57;2.03;;;1.83;;
15818;SDS011;8010;53.986;12.106;2023-07-08T12:03:37;1.75;;;1.60;;
15818;SDS011;8010;53.986;12.106;2023-07-08T12:08:54;1.63;;;1.50;;
15818;SDS011;8010;53.986;12.106;2023-07-08T12:11:26;2.67;;;1.80;;
15818;SDS011;8010;53.986;12.106;2023-07-08T12:14:04;2.28;;;1.35;;
15818;SDS011;8010;53.986;12.106;2023-07-08T12:16:31;3.30;;;1.60;;
15818;SDS011;8010;53.986;12.106;2023-07-08T12:18:58;1.55;;;1.45;;
15818;SDS011;8010;53.986;12.106;2023-07-08T12:21:26;3.80;;;1.58;;
15818;SDS011;8010;53.986;12.106;2023-07-08T12:23:53;2.20;;;1.95;;
15818;SDS011;8010;53.986;12.106;2023-07-08T12:26:19;1.60;;;1.50;;
15818;SDS011;8010;53.986;12.106;2023-07-08T12:28:46;1.90;;;1.52;;
15818;SDS011;8010;53.986;12.106;2023-07-08T12:31:18;1.90;;;1.45;;
15818;SDS011;8010;53.986;12.106;2023-07-08T12:33:45;1.90;;;1.77;;
15818;SDS011;8010;53.986;12.106;2023-07-08T12:36:13;3.15;;;1.60;;
15818;SDS011;8010;53.986;12.106;2023-07-08T12:38:45;1.98;;;1.52;;
15818;SDS011;8010;53.986;12.106;2023-07-08T12:41:13;5.78;;;1.90;;
15818;SDS011;8010;53.986;12.106;2023-07-08T12:43:44;2.35;;;1.90;;
15818;SDS011;8010;53.986;12.106;2023-07-08T12:46:11;1.63;;;1.52;;
15818;SDS011;8010;53.986;12.106;2023-07-08T12:48:37;1.95;;;1.65;;
15818;SDS011;8010;53.986;12.106;2023-07-08T12:51:05;1.90;;;1.67;;
15818;SDS011;8010;53.986;12.106;2023-07-08T12:53:34;1.80;;;1.60;;
15818;SDS011;8010;53.986;12.106;2023-07-08T12:56:00;2.55;;;1.70;;
15818;SDS011;8010;53.986;12.106;2023-07-08T12:58:30;2.58;;;1.75;;
15818;SDS011;8010;53.986;12.106;2023-07-08T13:01:00;2.45;;;1.77;;
15818;SDS011;8010;53.986;12.106;2023-07-08T13:03:29;3.58;;;1.75;;
15818;SDS011;8010;53.986;12.106;2023-07-08T13:05:57;3.10;;;1.50;;
15818;SDS011;8010;53.986;12.106;2023-07-08T13:08:24;1.90;;;1.77;;
15818;SDS011;8010;53.986;12.106;2023-07-08T13:10:54;3.35;;;1.77;;
15818;SDS011;8010;53.986;12.106;2023-07-08T13:13:23;1.80;;;1.70;;
15818;SDS011;8010;53.986;12.106;2023-07-08T13:15:53;2.03;;;1.60;;
15818;SDS011;8010;53.986;12.106;2023-07-08T13:18:41;2.58;;;1.90;;
15818;SDS011;8010;53.986;12.106;2023-07-08T13:21:06;1.70;;;1.60;;
15818;SDS011;8010;53.986;12.106;2023-07-08T13:23:35;2.30;;;1.92;;
15818;SDS011;8010;53.986;12.106;2023-07-08T13:26:10;2.03;;;1.40;;
15818;SDS011;8010;53.986;12.106;2023-07-08T13:28:40;2.20;;;1.95;;
15818;SDS011;8010;53.986;12.106;2023-07-08T13:31:19;3.75;;;1.80;;
15818;SDS011;8010;53.986;12.106;2023-07-08T13:33:49;2.00;;;1.77;;
15818;SDS011;8010;53.986;12.106;2023-07-08T13:36:16;1.92;;;1.73;;
15818;SDS011;8010;53.986;12.106;2023-07-08T13:38:44;3.30;;;1.88;;
15818;SDS011;8010;53.986;12.106;2023-07-08T13:41:10;2.15;;;1.80;;
15818;SDS011;8010;53.986;12.106;2023-07-08T13:43:43;3.88;;;1.83;;
15818;SDS011;8010;53.986;12.106;2023-07-08T13:51:45;2.85;;;1.80;;
15818;SDS011;8010;53.986;12.106;2023-07-08T13:56:46;1.95;;;1.80;;
15818;SDS011;8010;53.986;12.106;2023-07-08T13:59:17;1.80;;;1.70;;
15818;SDS011;8010;53.986;12.106;2023-07-08T14:01:48;1.92;;;1.50;;
15818;SDS011;8010;53.986;12.106;2023-07-08T14:04:18;1.88;;;1.63;;
15818;SDS011;8010;53.986;12.106;2023-07-08T14:06:47;2.70;;;1.90;;
15818;SDS011;8010;53.986;12.106;2023-07-08T14:09:19;1.88;;;1.65;;
15818;SDS011;8010;53.986;12.106;2023-07-08T14:11:46;2.58;;;1.80;;
15818;SDS011;8010;53.986;12.106;2023-07-08T14:14:13;2.25;;;1.70;;
15818;SDS011;8010;53.986;12.106;2023-07-08T14:16:40;2.63;;;1.77;;
15818;SDS011;8010;53.986;12.106;2023-07-08T14:19:12;2.15;;;1.83;;
15818;SDS011;8010;53.986;12.106;2023-07-08T14:21:40;4.47;;;1.60;;
15818;SDS011;8010;53.986;12.106;2023-07-08T14:24:12;3.67;;;1.85;;
15818;SDS011;8010;53.986;12.106;2023-07-08T14:26:40;2.97;;;1.90;;
15818;SDS011;8010;53.986;12.106;2023-07-08T14:29:07;1.83;;;1.60;;
15818;SDS011;8010;53.986;12.106;2023-07-08T14:31:33;1.98;;;1.77;;
15818;SDS011;8010;53.986;12.106;2023-07-08T14:34:00;3.15;;;1.80;;
15818;SDS011;8010;53.986;12.106;2023-07-08T14:36:29;3.03;;;1.85;;
15818;SDS011;8010;53.986;12.106;2023-07-08T14:38:54;3.30;;;1.80;;
15818;SDS011;8010;53.986;12.106;2023-07-08T14:41:20;3.00;;;2.10;;
15818;SDS011;8010;53.986;12.106;2023-07-08T14:43:46;2.38;;;1.98;;
15818;SDS011;8010;53.986;12.106;2023-07-08T14:46:11;4.60;;;1.77;;
15818;SDS011;8010;53.986;12.106;2023-07-08T14:48:37;2.90;;;1.70;;
15818;SDS011;8010;53.986;12.106;2023-07-08T14:51:02;3.70;;;1.98;;
15818;SDS011;8010;53.986;12.106;2023-07-08T14:53:28;2.75;;;1.80;;
15818;SDS011;8010;53.986;12.106;2023-07-08T14:55:54;3.75;;;1.60;;
15818;SDS011;8010;53.986;12.106;2023-07-08T14:58:23;4.85;;;1.67;;
15818;SDS011;8010;53.986;12.106;2023-07-08T15:00:51;2.17;;;1.70;;
15818;SDS011;8010;53.986;12.106;2023-07-08T15:03:19;2.33;;;1.55;;
15818;SDS011;8010;53.986;12.106;2023-07-08T15:05:45;2.25;;;1.88;;
15818;SDS011;8010;53.986;12.106;2023-07-08T15:08:10;2.83;;;1.40;;
15818;SDS011;8010;53.986;12.106;2023-07-08T15:10:36;2.22;;;1.67;;
15818;SDS011;8010;53.986;12.106;2023-07-08T15:13:03;2.70;;;1.70;;
15818;SDS011;8010;53.986;12.106;2023-07-08T15:15:32;2.95;;;1.60;;
15818;SDS011;8010;53.986;12.106;2023-07-08T15:18:00;2.28;;;1.65;;
15818;SDS011;8010;53.986;12.106;2023-07-08T15:20:27;2.17;;;1.67;;
15818;SDS011;8010;53.986;12.106;2023-07-08T15:22:53;3.22;;;1.67;;
15818;SDS011;8010;53.986;12.106;2023-07-08T15:25:18;1.95;;;1.58;;
15818;SDS011;8010;53.986;12.106;2023-07-08T15:27:45;2.05;;;1.63;;
15818;SDS011;8010;53.986;12.106;2023-07-08T15:30:18;1.90;;;1.50;;
15818;SDS011;8010;53.986;12.106;2023-07-08T15:32:46;1.52;;;1.40;;
15818;SDS011;8010;53.986;12.106;2023-07-08T15:35:13;3.03;;;1.65;;
15818;SDS011;8010;53.986;12.106;2023-07-08T15:37:44;2.60;;;1.70;;
15818;SDS011;8010;53.986;12.106;2023-07-08T15:40:12;2.33;;;1.40;;
15818;SDS011;8010;53.986;12.106;2023-07-08T15:42:41;3.08;;;1.52;;
15818;SDS011;8010;53.986;12.106;2023-07-08T15:47:39;2.67;;;1.50;;
15818;SDS011;8010;53.986;12.106;2023-07-08T15:50:09;2.35;;;1.30;;
15818;SDS011;8010;53.986;12.106;2023-07-08T15:52:39;2.33;;;1.60;;
15818;SDS011;8010;53.986;12.106;2023-07-08T15:55:05;3.85;;;1.70;;
15818;SDS011;8010;53.986;12.106;2023-07-08T15:57:37;1.63;;;1.50;;